Pagrindinis puslapis
METAR-TAF:

METAR-TAF

Oro uostai :

Ankoridžas, Aliaska, Jungtinės Amerikos Valstijos

platuma: 61-13N, ilguma: 149-51W, Aukštis: 42 m

Dabartinis oras

Ataskaita buvo paskelbta 12 minutes, ne 04:53 UTC
Ramus vėjas
Temperatūra -11°C
Drėgmė 66%
Slėgis 1017 hPa
Matomumas: 16.1 km
Giedras dangus

METAR: PAMR 290453Z 00000KT 10SM CLR M11/M16 A3002 RMK AO2 SLP170 T11061161 $

Laikas: 20:05 (05:05 UTC)


TAF: trūkstamas

Orai ataskaitas ir orų prognozės (METAR, TAF).

turimą stotys yra geltonos ir raudonos taškus žemėlapyje.

Perkelti pele per norėdami pamatyti stoties vardą.

Tada spustelėkite, norėdami matyti oro stebėjimo ir prognozės.

Norėdami pakeisti žemėlapį: spustelėkite ant žalios mygtukų su juodo kryžiaus žemyn,; žalią mygtuką su brūkšneliu, jei norite nutolinti; arba žalių rodyklių gretimoms žemėlapius.


METAR-TAF: